Byers, Texas
Current Conditions -  °F | °C
As of 11:52 AM on Monday 22 Dec 2014 (Local Time) from KSPS Reporting Station
Scattered Clouds Scattered Clouds  
Wind Chill: 56°   Ceiling: Unl
Heat Index: 56°   Visibility: 10mi
Dew Point: 42°   Wind: 15mph
Humidity: 60%   Direction: 340°NNW
Pressure: 29.64"   Gusts: NA
Location:  34.07°N, 98.19°W
Report Text: KSPS 221752Z 34013KT 10SM FEW010 SCT130 13/06 A2964 RMK AO2 SLP033 T01330056 10133 20044 51014
Loading
Personal Weather Stations






























Interactive Weather Map New forecast layout! Learn more

10-Day Weather Forecast

Advertisements
Track Severe Weather on mobile